Time;durP1;ratioP1;P1;durP2;ratioP2;P2;SDS_P1;SDS_P2;PMS_P1;PMS_P2;Temp;Humidity;BMP_temperature;BMP_pressure;BME280_temperature;BME280_humidity;BME280_pressure;Samples;Min_cycle;Max_cycle;Signal;HPM_P1;HPM_P2
2021/07/11 00:02:07;;;;;;;11.63;10.20;;;17.80;99.90;;;;;;5056222;28;20633;-77
2021/07/11 00:04:33;;;;;;;11.50;10.30;;;17.70;99.90;;;;;;5057031;28;20384;-77
2021/07/11 00:06:58;;;;;;;13.17;11.47;;;17.80;99.90;;;;;;5062276;28;20181;-79
2021/07/11 00:09:24;;;;;;;12.53;11.23;;;17.90;99.90;;;;;;5069542;28;20743;-77
2021/07/11 00:11:52;;;;;;;15.07;12.07;;;17.90;99.90;;;;;;5059420;28;20639;-80
2021/07/11 00:14:18;;;;;;;13.90;12.30;;;17.80;99.90;;;;;;5056465;28;20538;-78
2021/07/11 00:16:43;;;;;;;13.80;11.60;;;17.70;99.90;;;;;;5055893;28;20173;-78
2021/07/11 00:19:09;;;;;;;18.80;12.10;;;17.60;99.90;;;;;;5055776;28;20202;-79
2021/07/11 00:21:36;;;;;;;13.77;11.13;;;17.50;99.90;;;;;;5055743;28;20261;-74
2021/07/11 00:24:03;;;;;;;14.57;11.77;;;17.40;99.90;;;;;;5056948;28;20169;-76
2021/07/11 00:26:29;;;;;;;14.00;11.23;;;17.40;99.90;;;;;;5055708;28;20532;-76
2021/07/11 00:28:54;;;;;;;13.07;11.03;;;17.40;99.90;;;;;;5054880;28;20711;-79
2021/07/11 00:31:20;;;;;;;11.50;10.30;;;17.40;99.90;;;;;;5055523;28;20177;-79
2021/07/11 00:33:46;;;;;;;12.67;10.60;;;17.30;99.90;;;;;;5055153;28;20273;-78
2021/07/11 00:36:12;;;;;;;13.27;11.23;;;17.30;99.90;;;;;;5055481;28;20165;-79
2021/07/11 00:38:37;;;;;;;13.83;10.90;;;17.40;99.90;;;;;;5058255;28;20223;-75
2021/07/11 00:41:03;;;;;;;11.60;10.40;;;17.40;99.90;;;;;;5071982;28;20197;-79
2021/07/11 00:43:28;;;;;;;15.67;11.53;;;17.50;99.90;;;;;;5072159;28;20189;-76
2021/07/11 00:45:54;;;;;;;14.53;13.00;;;17.50;99.90;;;;;;5065820;28;20164;-77
2021/07/11 00:48:20;;;;;;;14.07;12.57;;;17.50;99.90;;;;;;5055113;28;20200;-79
2021/07/11 00:50:46;;;;;;;12.87;11.57;;;17.50;99.90;;;;;;5055129;28;20215;-76
2021/07/11 00:53:14;;;;;;;13.43;12.03;;;17.30;99.90;;;;;;5054681;28;20173;-79
2021/07/11 00:55:40;;;;;;;14.80;12.13;;;17.20;99.90;;;;;;5055169;28;20169;-79
2021/07/11 00:58:12;;;;;;;13.43;12.03;;;17.40;99.90;;;;;;5055005;28;20176;-79
2021/07/11 01:00:45;;;;;;;17.03;13.50;;;17.40;99.90;;;;;;5053649;28;20177;-77
2021/07/11 01:03:18;;;;;;;15.53;12.30;;;17.30;99.90;;;;;;5054716;28;20625;-79
2021/07/11 01:05:44;;;;;;;15.93;12.10;;;17.40;99.90;;;;;;5054435;28;20188;-80
2021/07/11 01:08:25;;;;;;;12.87;11.20;;;17.30;99.90;;;;;;5055612;28;20200;-79
2021/07/11 01:10:59;;;;;;;13.33;11.67;;;17.10;99.90;;;;;;5055855;28;20204;-78
2021/07/11 01:13:27;;;;;;;12.13;10.93;;;17.10;99.90;;;;;;5066624;28;20204;-80
2021/07/11 01:15:54;;;;;;;13.13;9.67;;;17.00;99.90;;;;;;5065561;28;20165;-78
2021/07/11 01:18:22;;;;;;;10.67;9.53;;;16.90;99.90;;;;;;5058564;28;20169;-78
2021/07/11 01:20:51;;;;;;;10.07;9.07;;;16.80;99.90;;;;;;5054956;28;20170;-79
2021/07/11 01:23:47;;;;;;;10.20;8.60;;;16.80;99.90;;;;;;5054616;28;20205;-78
2021/07/11 01:26:14;;;;;;;9.90;8.90;;;16.70;99.90;;;;;;5054267;28;20184;-76
2021/07/11 01:28:42;;;;;;;9.80;8.90;;;16.70;99.90;;;;;;5054312;28;20200;-75
2021/07/11 01:31:09;;;;;;;10.47;8.63;;;16.70;99.90;;;;;;5054476;28;20206;-78
2021/07/11 01:33:38;;;;;;;10.17;9.17;;;16.70;99.90;;;;;;5054327;28;20200;-75
2021/07/11 01:36:05;;;;;;;9.23;8.23;;;16.70;99.90;;;;;;5054272;28;20173;-77
2021/07/11 01:38:34;;;;;;;9.47;8.47;;;16.60;99.90;;;;;;5054155;28;20165;-78
2021/07/11 01:41:01;;;;;;;9.40;8.50;;;16.70;99.90;;;;;;5054348;28;20170;-78
2021/07/11 01:43:27;;;;;;;9.63;8.17;;;16.50;99.90;;;;;;5054245;28;20189;-78
2021/07/11 01:45:54;;;;;;;8.73;7.83;;;16.50;99.90;;;;;;5054557;28;20172;-78
2021/07/11 01:48:20;;;;;;;8.93;8.03;;;16.50;99.90;;;;;;5054374;28;20315;-78
2021/07/11 01:50:54;;;;;;;9.00;8.10;;;16.30;99.90;;;;;;5054478;28;20172;-76
2021/07/11 01:53:45;;;;;;;8.53;7.73;;;16.30;99.90;;;;;;5053023;28;20268;-78
2021/07/11 01:56:11;;;;;;;9.83;8.00;;;16.30;99.90;;;;;;5054317;28;20523;-79
2021/07/11 01:58:41;;;;;;;8.97;8.17;;;16.30;99.90;;;;;;5054043;28;20168;-78
2021/07/11 02:01:10;;;;;;;11.07;8.77;;;16.40;99.90;;;;;;5053961;28;20173;-79
2021/07/11 02:03:38;;;;;;;9.83;8.57;;;16.60;99.90;;;;;;5054089;28;20169;-76
2021/07/11 02:06:05;;;;;;;11.47;9.17;;;16.70;99.90;;;;;;5052972;28;20165;-79
2021/07/11 02:08:31;;;;;;;10.43;9.27;;;16.80;99.90;;;;;;5053797;28;20204;-76
2021/07/11 02:10:59;;;;;;;11.37;9.30;;;17.00;99.90;;;;;;5053292;28;20176;-75
2021/07/11 02:13:36;;;;;;;10.83;8.87;;;16.90;99.90;;;;;;5053928;28;20260;-78
2021/07/11 02:16:10;;;;;;;9.67;8.43;;;16.90;99.90;;;;;;5053691;28;20172;-78
2021/07/11 02:18:39;;;;;;;11.50;8.97;;;16.90;99.90;;;;;;5053605;28;20180;-76
2021/07/11 02:21:06;;;;;;;11.17;9.27;;;16.90;99.90;;;;;;5053631;28;20202;-74
2021/07/11 02:23:34;;;;;;;10.07;8.87;;;16.90;99.90;;;;;;5053722;28;20191;-78
2021/07/11 02:26:01;;;;;;;9.60;8.60;;;16.70;99.90;;;;;;5053770;28;20188;-78
2021/07/11 02:28:32;;;;;;;9.90;8.47;;;16.70;99.90;;;;;;5052593;28;20660;-78
2021/07/11 02:31:00;;;;;;;9.90;8.43;;;16.80;99.90;;;;;;5053659;28;20169;-79
2021/07/11 02:33:31;;;;;;;8.97;8.13;;;16.70;99.90;;;;;;5066620;28;20194;-76
2021/07/11 02:35:59;;;;;;;10.27;8.43;;;16.70;99.90;;;;;;5070674;28;20172;-74
2021/07/11 02:38:27;;;;;;;9.57;7.90;;;16.80;99.90;;;;;;5063927;28;20242;-75
2021/07/11 02:40:53;;;;;;;10.20;8.73;;;16.70;99.90;;;;;;5064047;28;20262;-75
2021/07/11 02:43:20;;;;;;;9.13;8.07;;;16.70;99.90;;;;;;5059778;28;20220;-77
2021/07/11 02:45:47;;;;;;;8.83;7.80;;;16.60;99.90;;;;;;5053358;28;20226;-76
2021/07/11 02:48:15;;;;;;;9.20;7.93;;;16.40;99.90;;;;;;5053185;28;20201;-79
2021/07/11 02:50:47;;;;;;;10.70;8.10;;;16.50;99.90;;;;;;5053158;28;20640;-77
2021/07/11 02:53:19;;;;;;;8.80;7.87;;;16.60;99.90;;;;;;5052815;28;20196;-78
2021/07/11 02:55:48;;;;;;;9.67;8.20;;;16.50;99.90;;;;;;5054304;28;20577;-78
2021/07/11 02:58:18;;;;;;;11.70;7.80;;;16.50;99.90;;;;;;5055132;28;20169;-78
2021/07/11 03:00:46;;;;;;;9.13;7.80;;;16.40;99.90;;;;;;5056178;28;20211;-78
2021/07/11 03:03:14;;;;;;;9.03;8.10;;;16.40;99.90;;;;;;5057944;28;20188;-78
2021/07/11 03:05:40;;;;;;;12.03;8.03;;;16.30;99.90;;;;;;5058483;28;20165;-74
2021/07/11 03:08:07;;;;;;;10.90;8.03;;;16.30;99.90;;;;;;5056886;28;20231;-76
2021/07/11 03:10:33;;;;;;;9.80;8.80;;;16.40;99.90;;;;;;5056194;28;20169;-78
2021/07/11 03:13:01;;;;;;;9.77;8.10;;;16.50;99.90;;;;;;5053330;28;20197;-78
2021/07/11 03:15:27;;;;;;;12.37;8.97;;;16.60;99.90;;;;;;5052891;28;20204;-78
2021/07/11 03:17:59;;;;;;;12.97;8.67;;;16.70;99.90;;;;;;5055810;28;20192;-78
2021/07/11 03:20:26;;;;;;;10.20;8.30;;;16.70;99.90;;;;;;5056445;28;20252;-75
2021/07/11 03:22:54;;;;;;;9.23;7.53;;;16.80;99.90;;;;;;5037628;28;20250;-77
2021/07/11 03:25:20;;;;;;;10.43;8.73;;;16.70;99.90;;;;;;5036614;28;20194;-78
2021/07/11 03:27:48;;;;;;;9.63;7.50;;;16.70;99.90;;;;;;5037626;28;20568;-75
2021/07/11 03:30:17;;;;;;;10.37;8.43;;;16.60;99.90;;;;;;5036739;28;20224;-78
2021/07/11 03:32:44;;;;;;;10.23;8.10;;;16.40;99.90;;;;;;5037140;28;20201;-75
2021/07/11 03:35:12;;;;;;;9.47;7.77;;;16.40;99.90;;;;;;5037291;28;20611;-75
2021/07/11 03:37:45;;;;;;;10.70;7.87;;;16.30;99.90;;;;;;5036626;28;20252;-78
2021/07/11 03:40:20;;;;;;;10.27;8.37;;;16.20;99.90;;;;;;5035632;28;20273;-77
2021/07/11 03:42:48;;;;;;;11.63;8.23;;;16.20;99.90;;;;;;5036534;28;20181;-76
2021/07/11 03:45:16;;;;;;;12.33;8.60;;;16.20;99.90;;;;;;5036557;28;20268;-77
2021/07/11 03:47:56;;;;;;;11.33;8.73;;;16.20;99.90;;;;;;5036210;28;20570;-76
2021/07/11 03:50:25;;;;;;;9.60;8.60;;;16.20;99.90;;;;;;5036368;28;20566;-77
2021/07/11 03:52:56;;;;;;;11.87;8.77;;;16.10;99.90;;;;;;5036119;28;20189;-75
2021/07/11 03:55:22;;;;;;;11.97;9.17;;;16.10;99.90;;;;;;5036483;28;20168;-77
2021/07/11 03:57:50;;;;;;;12.70;9.53;;;16.30;99.90;;;;;;5037638;28;20251;-74
2021/07/11 04:00:18;;;;;;;10.17;8.97;;;16.30;99.90;;;;;;5053383;28;20176;-74
2021/07/11 04:02:48;;;;;;;10.03;9.03;;;16.30;99.90;;;;;;5052496;28;20173;-76
2021/07/11 04:05:17;;;;;;;9.60;8.63;;;16.40;99.90;;;;;;5045490;28;20169;-74
2021/07/11 04:07:44;;;;;;;12.47;9.00;;;16.10;99.90;;;;;;5047806;28;20166;-75
2021/07/11 04:10:11;;;;;;;10.03;9.00;;;15.90;99.90;;;;;;5047633;28;20168;-77
2021/07/11 04:12:38;;;;;;;12.83;9.60;;;15.80;99.90;;;;;;5035958;28;20637;-75
2021/07/11 04:15:04;;;;;;;10.40;9.27;;;15.80;99.90;;;;;;5036108;28;20650;-75
2021/07/11 04:17:32;;;;;;;14.10;9.37;;;15.80;99.90;;;;;;5035812;28;20185;-75
2021/07/11 04:20:02;;;;;;;11.13;9.40;;;15.70;99.90;;;;;;5035325;28;20169;-76
2021/07/11 04:22:29;;;;;;;13.53;9.47;;;15.60;99.90;;;;;;5035841;28;20283;-78
2021/07/11 04:24:56;;;;;;;9.50;8.40;;;15.70;99.90;;;;;;5035669;28;20720;-75
2021/07/11 04:27:24;;;;;;;10.03;9.03;;;15.60;99.90;;;;;;5035627;28;20169;-75
2021/07/11 04:29:50;;;;;;;12.00;8.73;;;15.60;99.90;;;;;;5034738;28;20205;-78
2021/07/11 04:32:17;;;;;;;10.37;9.27;;;15.80;99.90;;;;;;5034133;28;20178;-78
2021/07/11 04:34:42;;;;;;;12.03;8.90;;;15.90;99.90;;;;;;5035281;28;20176;-78
2021/07/11 04:37:08;;;;;;;11.57;8.80;;;16.10;99.90;;;;;;5034214;28;20170;-78
2021/07/11 04:39:34;;;;;;;11.87;9.27;;;16.10;99.90;;;;;;5035471;28;20227;-75
2021/07/11 04:42:00;;;;;;;9.43;8.37;;;16.20;99.90;;;;;;5035335;28;20170;-76
2021/07/11 04:44:30;;;;;;;11.13;8.50;;;16.40;99.90;;;;;;5035209;28;20606;-77
2021/07/11 04:46:56;;;;;;;12.20;9.70;;;16.50;99.90;;;;;;5035504;28;20220;-75
2021/07/11 04:49:22;;;;;;;12.73;9.03;;;16.60;99.90;;;;;;5035074;28;20628;-78
2021/07/11 04:51:52;;;;;;;9.93;8.70;;;16.70;99.90;;;;;;5034066;28;20224;-78
2021/07/11 04:54:18;;;;;;;12.50;8.73;;;16.60;99.90;;;;;;5035491;28;20166;-77
2021/07/11 04:56:44;;;;;;;14.40;8.53;;;16.70;99.90;;;;;;5047338;28;20177;-78
2021/07/11 04:59:09;;;;;;;12.07;8.97;;;16.80;99.90;;;;;;5051702;28;20195;-74
2021/07/11 05:01:35;;;;;;;11.47;8.80;;;16.80;99.90;;;;;;5040372;28;20178;-76
2021/07/11 05:04:01;;;;;;;11.83;9.13;;;17.00;99.90;;;;;;5035588;28;20170;-76
2021/07/11 05:06:27;;;;;;;13.90;9.40;;;17.10;99.90;;;;;;5040697;28;20176;-79
2021/07/11 05:08:53;;;;;;;11.63;8.83;;;17.20;99.90;;;;;;5035254;28;20202;-76
2021/07/11 05:11:18;;;;;;;11.43;8.53;;;17.20;99.40;;;;;;5036157;28;20165;-75
2021/07/11 05:13:44;;;;;;;10.17;8.23;;;17.10;99.90;;;;;;5037212;28;20174;-76
2021/07/11 05:16:10;;;;;;;10.70;8.47;;;17.10;99.90;;;;;;5035886;28;20171;-78
2021/07/11 05:18:36;;;;;;;10.53;8.53;;;17.00;99.90;;;;;;5034819;28;20691;-75
2021/07/11 05:21:02;;;;;;;12.43;8.67;;;16.90;99.90;;;;;;5034826;28;20170;-76
2021/07/11 05:23:29;;;;;;;11.07;8.40;;;16.90;99.90;;;;;;5034998;28;20213;-78
2021/07/11 05:25:54;;;;;;;10.37;8.63;;;17.00;99.90;;;;;;5034668;28;20170;-76
2021/07/11 05:28:20;;;;;;;14.77;9.73;;;17.00;99.90;;;;;;5037292;28;20204;-77
2021/07/11 05:30:46;;;;;;;9.03;7.80;;;17.10;99.90;;;;;;5041778;28;20173;-75
2021/07/11 05:33:12;;;;;;;10.90;9.13;;;17.10;99.90;;;;;;5043736;28;20642;-76
2021/07/11 05:35:38;;;;;;;11.47;9.00;;;17.00;99.90;;;;;;5041624;28;20299;-76
2021/07/11 05:38:04;;;;;;;11.23;9.47;;;17.10;99.90;;;;;;5034729;28;20622;-79
2021/07/11 05:40:29;;;;;;;12.33;9.30;;;17.30;99.90;;;;;;5034065;28;20176;-79
2021/07/11 05:42:55;;;;;;;12.53;9.63;;;17.60;99.90;;;;;;5034240;28;20245;-74
2021/07/11 05:45:21;;;;;;;11.30;10.03;;;17.50;99.70;;;;;;5034091;28;20236;-74
2021/07/11 05:47:47;;;;;;;12.13;9.13;;;17.40;99.70;;;;;;5033722;28;20170;-75
2021/07/11 05:50:14;;;;;;;11.87;9.70;;;17.50;99.90;;;;;;5033825;28;20169;-76
2021/07/11 05:52:40;;;;;;;13.80;9.90;;;17.40;99.90;;;;;;5034058;28;20170;-76
2021/07/11 05:55:07;;;;;;;14.37;10.10;;;17.40;99.90;;;;;;5033832;28;20181;-76
2021/07/11 05:57:33;;;;;;;11.57;9.47;;;17.70;99.30;;;;;;5034098;28;20161;-78
2021/07/11 05:59:59;;;;;;;12.60;10.90;;;17.50;99.90;;;;;;5034412;28;20205;-78
2021/07/11 06:02:27;;;;;;;12.00;10.73;;;17.70;99.60;;;;;;5033722;28;20335;-78
2021/07/11 06:04:53;;;;;;;12.70;10.13;;;17.70;99.00;;;;;;5032498;28;20173;-79
2021/07/11 06:07:18;;;;;;;12.67;11.30;;;17.60;99.90;;;;;;5033960;28;20172;-75
2021/07/11 06:09:44;;;;;;;13.93;11.40;;;17.60;99.90;;;;;;5033939;28;20218;-77
2021/07/11 06:12:10;;;;;;;15.40;11.57;;;17.70;99.60;;;;;;5033593;28;20174;-78
2021/07/11 06:14:35;;;;;;;14.27;10.80;;;17.60;99.80;;;;;;5033381;28;20544;-75
2021/07/11 06:17:01;;;;;;;11.67;10.00;;;17.70;99.00;;;;;;5033338;28;20174;-75
2021/07/11 06:19:27;;;;;;;13.20;9.47;;;17.60;99.60;;;;;;5033459;28;20175;-76
2021/07/11 06:21:52;;;;;;;10.03;8.67;;;17.80;99.30;;;;;;5032302;28;20174;-79
2021/07/11 06:24:18;;;;;;;12.70;8.37;;;17.80;98.50;;;;;;5033514;28;20162;-76
2021/07/11 06:26:45;;;;;;;10.67;8.80;;;17.70;98.00;;;;;;5032145;28;20193;-74
2021/07/11 06:29:10;;;;;;;11.83;8.83;;;17.70;98.50;;;;;;5033311;28;20201;-75
2021/07/11 06:31:36;;;;;;;11.50;8.50;;;17.60;99.80;;;;;;5033106;28;20158;-76
2021/07/11 06:34:02;;;;;;;11.13;8.37;;;17.60;99.00;;;;;;5033537;28;20178;-76
2021/07/11 06:36:31;;;;;;;12.23;9.43;;;17.60;98.90;;;;;;5031960;28;20256;-77
2021/07/11 06:38:58;;;;;;;15.13;9.03;;;17.70;97.40;;;;;;5033470;28;20268;-78
2021/07/11 06:41:23;;;;;;;14.27;9.20;;;17.90;97.00;;;;;;5032867;28;20180;-79
2021/07/11 06:43:49;;;;;;;10.83;8.23;;;18.00;97.10;;;;;;5033039;28;20209;-75
2021/07/11 06:46:14;;;;;;;10.90;8.67;;;18.10;97.40;;;;;;5032771;28;20264;-77
2021/07/11 06:48:40;;;;;;;9.20;8.13;;;18.10;96.80;;;;;;5032901;28;20220;-76
2021/07/11 06:51:06;;;;;;;11.27;7.80;;;18.20;96.90;;;;;;5032605;28;20197;-76
2021/07/11 06:53:33;;;;;;;9.73;7.83;;;18.30;96.40;;;;;;5033280;28;20178;-74
2021/07/11 06:55:59;;;;;;;8.40;7.47;;;18.20;95.20;;;;;;5033106;28;20256;-76
2021/07/11 06:58:25;;;;;;;8.83;6.93;;;18.30;95.00;;;;;;5034078;28;20257;-77
2021/07/11 07:00:51;;;;;;;9.30;7.13;;;18.40;95.40;;;;;;5035363;28;20270;-76
2021/07/11 07:03:16;;;;;;;9.90;8.10;;;18.40;94.50;;;;;;5035222;28;20256;-78
2021/07/11 07:05:42;;;;;;;10.17;8.17;;;18.20;95.80;;;;;;5037585;28;20170;-76
2021/07/11 07:08:09;;;;;;;10.17;8.83;;;18.20;95.50;;;;;;5042101;28;20220;-77
2021/07/11 07:10:34;;;;;;;10.90;8.40;;;18.40;94.80;;;;;;5044160;28;20166;-76
2021/07/11 07:13:00;;;;;;;10.07;8.80;;;18.50;94.70;;;;;;5036559;28;20174;-76
2021/07/11 07:15:26;;;;;;;9.73;7.80;;;18.50;94.20;;;;;;5036711;28;20177;-77
2021/07/11 07:17:51;;;;;;;9.17;8.27;;;18.50;94.80;;;;;;5038374;28;20189;-79
2021/07/11 07:20:17;;;;;;;10.70;8.10;;;18.60;94.80;;;;;;5034013;28;20177;-76
2021/07/11 07:22:43;;;;;;;10.83;8.07;;;18.60;94.90;;;;;;5033501;28;20634;-76
2021/07/11 07:25:15;;;;;;;8.97;8.07;;;18.80;94.60;;;;;;5033465;28;20170;-77
2021/07/11 07:27:42;;;;;;;11.30;8.77;;;18.90;93.80;;;;;;5032446;28;20253;-77
2021/07/11 07:30:09;;;;;;;10.07;8.93;;;18.90;94.10;;;;;;5032569;28;20174;-75
2021/07/11 07:32:35;;;;;;;13.30;8.57;;;19.00;93.30;;;;;;5032738;28;20205;-77
2021/07/11 07:35:02;;;;;;;10.23;7.70;;;19.10;90.70;;;;;;5032569;28;20647;-76
2021/07/11 07:37:28;;;;;;;9.77;7.70;;;18.90;90.60;;;;;;5032723;28;20201;-78
2021/07/11 07:39:54;;;;;;;9.10;8.13;;;18.50;91.10;;;;;;5032699;28;20696;-79
2021/07/11 07:42:19;;;;;;;10.57;8.77;;;18.40;92.10;;;;;;5031149;28;20645;-78
2021/07/11 07:44:45;;;;;;;10.50;9.00;;;18.50;93.40;;;;;;5032224;28;20198;-74
2021/07/11 07:47:10;;;;;;;10.37;8.30;;;18.60;93.60;;;;;;5032740;28;20206;-78
2021/07/11 07:49:36;;;;;;;8.63;7.13;;;18.70;94.30;;;;;;5033139;28;20662;-78
2021/07/11 07:52:03;;;;;;;10.20;8.00;;;18.80;93.90;;;;;;5034142;28;20216;-75
2021/07/11 07:54:28;;;;;;;8.07;6.43;;;18.90;92.60;;;;;;5043610;28;20232;-76
2021/07/11 07:56:54;;;;;;;7.83;7.07;;;19.20;91.60;;;;;;5041163;28;20162;-77
2021/07/11 07:59:20;;;;;;;10.33;7.40;;;19.20;88.60;;;;;;5037620;28;20179;-79
2021/07/11 08:01:46;;;;;;;7.87;6.87;;;19.20;87.50;;;;;;5043261;28;20174;-76
2021/07/11 08:04:12;;;;;;;6.90;6.20;;;19.50;87.70;;;;;;5042844;28;20202;-76
2021/07/11 08:06:38;;;;;;;8.83;5.30;;;19.70;83.50;;;;;;5040978;28;20176;-75
2021/07/11 08:09:04;;;;;;;5.93;5.33;;;19.60;80.00;;;;;;5035726;28;20208;-78
2021/07/11 08:11:30;;;;;;;6.20;5.60;;;19.60;79.00;;;;;;5035349;28;20636;-77
2021/07/11 08:13:56;;;;;;;6.27;5.67;;;19.70;79.50;;;;;;5035921;28;20769;-75
2021/07/11 08:16:22;;;;;;;7.43;5.67;;;19.70;79.40;;;;;;5038931;28;20178;-79
2021/07/11 08:18:49;;;;;;;7.63;5.43;;;19.60;79.30;;;;;;5045043;28;20196;-77
2021/07/11 08:21:16;;;;;;;5.27;4.60;;;19.60;80.60;;;;;;5055042;28;20201;-79
2021/07/11 08:23:42;;;;;;;7.20;5.47;;;19.80;74.70;;;;;;5054631;28;20196;-75
2021/07/11 08:26:07;;;;;;;6.03;5.40;;;19.80;75.30;;;;;;5053758;28;20173;-77
2021/07/11 08:28:33;;;;;;;5.90;5.10;;;19.80;76.40;;;;;;5054107;28;20270;-77
2021/07/11 08:30:59;;;;;;;5.37;4.87;;;19.70;76.40;;;;;;5055360;28;20177;-79
2021/07/11 08:33:24;;;;;;;5.30;4.77;;;19.90;72.80;;;;;;5054516;28;20180;-77
2021/07/11 08:35:50;;;;;;;5.30;4.80;;;20.00;73.50;;;;;;5054499;28;20534;-75
2021/07/11 08:38:16;;;;;;;5.37;4.10;;;20.10;71.10;;;;;;5055029;28;20173;-75
2021/07/11 08:40:43;;;;;;;4.33;3.93;;;20.10;68.20;;;;;;5052199;28;20189;-76
2021/07/11 08:43:09;;;;;;;5.00;4.20;;;20.00;71.90;;;;;;5056084;28;20179;-76
2021/07/11 08:45:36;;;;;;;5.70;4.30;;;20.20;70.20;;;;;;5064929;28;20189;-75
2021/07/11 08:48:02;;;;;;;4.60;4.07;;;20.30;66.30;;;;;;5062762;28;20195;-75
2021/07/11 08:50:32;;;;;;;5.17;4.40;;;20.30;65.70;;;;;;5062752;28;20174;-79
2021/07/11 08:52:58;;;;;;;5.07;4.30;;;20.10;67.00;;;;;;5060546;28;20173;-76
2021/07/11 08:55:25;;;;;;;5.63;4.43;;;20.00;67.50;;;;;;5055451;28;20173;-76
2021/07/11 08:57:59;;;;;;;5.10;4.40;;;20.00;70.20;;;;;;5049508;28;20223;-76
2021/07/11 09:00:28;;;;;;;5.37;4.87;;;19.70;72.10;;;;;;5049326;28;20752;-78
2021/07/11 09:02:54;;;;;;;5.40;4.33;;;19.50;76.70;;;;;;5055532;28;20625;-76
2021/07/11 09:05:29;;;;;;;5.20;4.10;;;19.20;82.50;;;;;;5051742;28;20173;-76
2021/07/11 09:08:05;;;;;;;4.83;3.63;;;19.40;78.80;;;;;;5054102;28;20161;-79
2021/07/11 09:10:48;;;;;;;4.87;3.70;;;19.50;78.10;;;;;;5050878;28;20189;-75
2021/07/11 09:13:17;;;;;;;4.40;3.50;;;19.40;77.20;;;;;;5052227;28;20190;-76
2021/07/11 09:15:47;;;;;;;4.70;3.73;;;19.40;76.30;;;;;;5050263;28;20165;-79
2021/07/11 09:18:13;;;;;;;4.77;3.70;;;19.40;76.00;;;;;;5053476;28;20172;-80
2021/07/11 09:21:11;;;;;;;4.40;3.10;;;19.50;73.90;;;;;;5053634;28;20568;-81
2021/07/11 09:23:38;;;;;;;6.33;3.20;;;19.50;75.30;;;;;;5047487;28;20193;-78
2021/07/11 09:26:06;;;;;;;3.77;3.00;;;19.60;72.00;;;;;;5053964;28;20215;-79
2021/07/11 09:28:35;;;;;;;4.17;2.53;;;19.70;72.80;;;;;;5053677;28;20225;-79
2021/07/11 09:31:15;;;;;;;5.27;2.70;;;19.90;70.10;;;;;;5056830;28;20185;-78
2021/07/11 09:33:43;;;;;;;3.60;2.67;;;20.00;71.20;;;;;;5071765;28;20178;-75
2021/07/11 09:36:16;;;;;;;4.73;3.17;;;20.10;69.60;;;;;;5071063;28;20225;-78
2021/07/11 09:38:47;;;;;;;4.70;3.20;;;20.00;71.60;;;;;;5059286;28;20181;-78
2021/07/11 09:41:22;;;;;;;3.73;3.33;;;20.10;71.90;;;;;;5063635;28;20198;-78
2021/07/11 09:43:53;;;;;;;4.97;3.10;;;20.30;67.90;;;;;;5068626;28;20175;-80
2021/07/11 09:46:26;;;;;;;3.10;2.80;;;20.20;68.40;;;;;;5057891;28;20184;-78
2021/07/11 09:48:52;;;;;;;5.00;3.53;;;20.20;71.80;;;;;;5055827;28;20213;-77
2021/07/11 09:51:30;;;;;;;3.77;2.90;;;20.30;69.00;;;;;;5054388;28;20197;-78
2021/07/11 09:54:10;;;;;;;4.80;3.20;;;20.50;66.60;;;;;;5043977;28;20210;-78
2021/07/11 09:56:40;;;;;;;7.87;2.73;;;20.60;65.90;;;;;;5055203;28;20187;-78
2021/07/11 09:59:09;;;;;;;4.00;3.53;;;20.80;64.20;;;;;;5050310;28;20217;-80
2021/07/11 10:01:37;;;;;;;5.13;3.40;;;21.00;52.30;;;;;;5053489;28;20174;-82
2021/07/11 10:04:03;;;;;;;7.00;3.30;;;20.80;57.00;;;;;;5051064;28;20176;-77
2021/07/11 10:06:31;;;;;;;4.37;3.47;;;21.00;59.30;;;;;;5046174;28;20207;-77
2021/07/11 10:08:57;;;;;;;3.23;2.50;;;21.20;55.20;;;;;;5049982;28;20226;-78
2021/07/11 10:11:24;;;;;;;3.53;2.70;;;21.50;50.20;;;;;;5048448;28;20255;-78
2021/07/11 10:13:50;;;;;;;4.70;2.50;;;21.80;45.60;;;;;;5060163;28;20177;-80
2021/07/11 10:16:16;;;;;;;5.37;3.37;;;22.00;41.20;;;;;;5065121;28;20192;-76
2021/07/11 10:18:44;;;;;;;3.93;3.00;;;21.80;37.50;;;;;;5057559;28;20173;-77
2021/07/11 10:21:12;;;;;;;3.20;2.40;;;21.70;38.50;;;;;;5048109;28;20183;-78
2021/07/11 10:23:39;;;;;;;3.63;2.63;;;21.60;44.60;;;;;;5038919;28;20199;-78
2021/07/11 10:26:08;;;;;;;4.53;3.70;;;21.60;45.00;;;;;;5052546;28;20180;-77
2021/07/11 10:28:37;;;;;;;4.37;3.10;;;21.50;46.50;;;;;;5051458;28;20308;-80
2021/07/11 10:31:04;;;;;;;5.40;2.73;;;21.30;49.90;;;;;;5053187;28;20180;-78
2021/07/11 10:33:41;;;;;;;3.37;2.43;;;21.40;47.60;;;;;;5053492;28;20174;-80
2021/07/11 10:36:06;;;;;;;3.83;2.90;;;21.40;47.20;;;;;;5053311;28;20590;-76
2021/07/11 10:38:41;;;;;;;3.70;2.63;;;21.60;43.70;;;;;;5040894;28;20175;-78
2021/07/11 10:41:29;;;;;;;4.10;2.53;;;21.80;38.90;;;;;;5032761;28;20208;-77
2021/07/11 10:44:16;;;;;;;4.40;2.80;;;21.50;40.90;;;;;;5033547;28;20522;-81
2021/07/11 10:46:57;;;;;;;3.70;2.97;;;21.60;39.60;;;;;;5033414;28;20231;-78
2021/07/11 10:49:28;;;;;;;4.30;2.40;;;21.80;38.00;;;;;;5034038;28;20562;-77
2021/07/11 10:51:56;;;;;;;3.93;2.97;;;21.70;34.10;;;;;;5032700;28;20184;-78
2021/07/11 10:54:28;;;;;;;3.73;2.50;;;21.70;37.10;;;;;;5034079;28;20695;-75
2021/07/11 10:57:00;;;;;;;4.13;3.00;;;21.50;43.20;;;;;;5033996;28;20231;-75
2021/07/11 10:59:42;;;;;;;4.97;2.80;;;21.60;41.50;;;;;;5042636;28;20174;-77
2021/07/11 11:02:18;;;;;;;4.80;3.03;;;21.50;43.20;;;;;;5051361;28;20494;-80
2021/07/11 11:04:44;;;;;;;4.00;2.90;;;21.30;45.20;;;;;;5057758;28;20245;-78
2021/07/11 11:07:14;;;;;;;7.13;3.53;;;21.30;44.70;;;;;;5071401;28;20237;-78
2021/07/11 11:09:43;;;;;;;6.50;3.73;;;21.30;45.90;;;;;;5061158;28;20196;-77
2021/07/11 11:12:24;;;;;;;4.47;3.47;;;21.20;48.20;;;;;;5060035;28;20255;-77
2021/07/11 11:15:00;;;;;;;4.93;3.63;;;21.10;47.80;;;;;;5060112;28;20183;-78
2021/07/11 11:17:34;;;;;;;3.63;2.73;;;21.20;50.80;;;;;;5057654;28;20200;-79
2021/07/11 11:20:20;;;;;;;4.17;2.60;;;21.10;52.20;;;;;;5054133;28;20169;-78
2021/07/11 11:22:54;;;;;;;3.40;2.07;;;21.20;50.30;;;;;;5053389;28;20220;-82
2021/07/11 11:25:23;;;;;;;3.50;2.40;;;21.20;49.40;;;;;;5052863;28;20174;-77
2021/07/11 11:27:55;;;;;;;5.77;2.43;;;20.80;52.70;;;;;;5053561;28;20220;-77
2021/07/11 11:30:24;;;;;;;4.00;2.57;;;20.80;55.60;;;;;;5047028;28;20603;-77
2021/07/11 11:33:00;;;;;;;4.27;2.60;;;20.90;55.10;;;;;;5040090;28;20210;-79
2021/07/11 11:35:34;;;;;;;3.37;2.50;;;21.20;51.40;;;;;;5052743;28;20201;-78
2021/07/11 11:38:03;;;;;;;3.03;2.10;;;21.40;48.70;;;;;;5053153;28;20254;-78
2021/07/11 11:40:31;;;;;;;2.77;2.03;;;21.70;43.20;;;;;;5062200;28;20836;-77
2021/07/11 11:43:03;;;;;;;3.83;2.33;;;22.00;33.20;;;;;;5048942;28;20274;-76
2021/07/11 11:45:30;;;;;;;5.60;2.07;;;22.20;26.60;;;;;;5047211;28;20184;-77
2021/07/11 11:48:11;;;;;;;3.40;2.10;;;22.30;29.70;;;;;;5050540;28;20180;-79
2021/07/11 11:50:41;;;;;;;3.67;1.90;;;22.50;28.30;;;;;;5056110;28;20652;-78
2021/07/11 11:53:12;;;;;;;3.63;2.00;;;22.70;21.20;;;;;;5068478;28;20222;-78
2021/07/11 11:55:58;;;;;;;2.47;1.67;;;23.00;17.20;;;;;;5057379;28;20165;-81
2021/07/11 11:58:33;;;;;;;2.23;1.83;;;23.00;4.00;;;;;;5058323;28;20190;-77
2021/07/11 12:01:07;;;;;;;2.50;1.70;;;22.90;4.10;;;;;;5059234;28;20173;-76
2021/07/11 12:03:37;;;;;;;2.53;2.00;;;22.30;10.80;;;;;;5057238;28;20180;-77
2021/07/11 12:06:04;;;;;;;3.10;2.10;;;22.20;20.20;;;;;;5039992;28;20169;-79
2021/07/11 12:08:39;;;;;;;2.70;1.60;;;22.30;14.60;;;;;;5037397;28;20261;-78
2021/07/11 12:11:07;;;;;;;2.50;1.70;;;22.20;15.10;;;;;;5038616;28;20217;-77
2021/07/11 12:13:33;;;;;;;1.63;1.33;;;22.10;16.90;;;;;;5035518;28;20248;-77
2021/07/11 12:16:01;;;;;;;2.43;1.57;;;22.20;10.90;;;;;;5036857;28;20174;-79
2021/07/11 12:18:27;;;;;;;2.47;1.50;;;22.10;13.50;;;;;;5035030;28;20260;-79
2021/07/11 12:20:54;;;;;;;2.70;1.57;;;22.10;10.90;;;;;;5043227;28;20264;-79
2021/07/11 12:23:21;;;;;;;1.80;1.20;;;22.20;9.60;;;;;;5037752;28;20185;-81
2021/07/11 12:26:02;;;;;;;1.83;1.40;;;22.40;8.30;;;;;;5050885;28;20213;-78
2021/07/11 12:28:27;;;;;;;1.83;1.30;;;22.70;5.90;;;;;;5043717;28;20213;-80
2021/07/11 12:30:56;;;;;;;1.77;1.30;;;23.10;1.00;;;;;;5040129;28;20223;-80
2021/07/11 12:33:37;;;;;;;1.33;1.10;;;23.10;1.00;;;;;;5039379;28;20186;-80
2021/07/11 12:36:11;;;;;;;2.50;1.30;;;23.30;1.00;;;;;;5044317;28;20175;-77
2021/07/11 12:38:38;;;;;;;2.50;1.40;;;23.30;1.00;;;;;;5050199;28;20172;-78
2021/07/11 12:41:07;;;;;;;2.33;1.33;;;23.10;1.00;;;;;;5040977;28;20252;-79
2021/07/11 12:43:44;;;;;;;3.70;2.13;;;22.90;1.00;;;;;;5065321;28;20200;-80
2021/07/11 12:46:11;;;;;;;2.80;1.47;;;22.70;1.00;;;;;;5055062;28;20185;-78
2021/07/11 12:48:43;;;;;;;2.37;1.40;;;22.70;1.00;;;;;;5058470;28;20201;-80